Pays
Station

 

Conditions  météo  pour  Rosario Aerodrome  -  Argentine    Argentine

  
21 °C
    
 
 

METAR pour Rosario Aerodrome :

SAAR 162000Z 36007KT CAVOK 21/07 Q1021

 

Voici le bulletin pour Rosario Aerodrome - Argentine.
 
Le bulletin a été fait il y a un moment, à 20:00 UTC .
Le vent soufflait à la vitesse de 3.6 mètres par seconde de Nord (360°).
 
La température était de 21 °C, avec un point de rosée à 7 °C.
La pression atmosphérique était de 1021 hPa.
L'humidité relative était de 40.3%.
 
Il y avait pas de nuages en-dessous de 1500 mètres et pas de cumulonimbus.
 
La visibilité globale était de supérieure à 10 kilomètres.
 

 
 
 

Pays :   A   B   C   D   E   F   G   H   I   J   K   L   M   N   O   P   Q   R   S   T   U   V   W   Y   Z

 

Partenaires :  Info Météo avec Met'info
Météo Marine avec MeteoMarine.net
Infos Site  |  Infos Légales  |  Crédits  |  Confidentialité
Contactez-nous  |  Ajouter aux favoris
© 2013-2018 METAR - Tous droits réservés